Time;durP1;ratioP1;P1;durP2;ratioP2;P2;SDS_P1;SDS_P2;PMS_P1;PMS_P2;Temp;Humidity;BMP_temperature;BMP_pressure;BME280_temperature;BME280_humidity;BME280_pressure;Samples;Min_cycle;Max_cycle;Signal;HPM_P1;HPM_P2
2021/11/09 00:02:24;;;;;;;8.40;5.67;;;7.30;99.90;;;;;;5036903;28;20478;-81
2021/11/09 00:04:55;;;;;;;11.60;6.20;;;7.30;99.90;;;;;;5038268;28;20467;-80
2021/11/09 00:07:28;;;;;;;8.57;4.87;;;7.30;99.90;;;;;;5047247;28;20485;-80
2021/11/09 00:09:57;;;;;;;8.30;4.80;;;7.20;99.90;;;;;;5031526;28;20490;-80
2021/11/09 00:12:29;;;;;;;7.37;4.87;;;7.20;99.90;;;;;;5045997;28;20448;-80
2021/11/09 00:14:59;;;;;;;7.50;4.70;;;7.20;99.90;;;;;;5040625;28;20468;-79
2021/11/09 00:17:28;;;;;;;8.93;5.40;;;7.20;99.90;;;;;;5052271;28;20460;-78
2021/11/09 00:19:57;;;;;;;7.50;4.93;;;7.20;99.90;;;;;;5041232;28;20484;-78
2021/11/09 00:22:27;;;;;;;8.43;5.47;;;7.40;99.90;;;;;;5042539;28;21239;-78
2021/11/09 00:24:55;;;;;;;9.67;6.30;;;7.20;99.90;;;;;;5039409;28;20519;-77
2021/11/09 00:27:23;;;;;;;8.73;6.05;;;7.20;99.90;;;;;;5039478;28;20493;-79
2021/11/09 00:29:53;;;;;;;9.13;5.73;;;7.20;99.90;;;;;;5035982;28;20713;-77
2021/11/09 00:32:22;;;;;;;9.00;6.50;;;7.30;99.90;;;;;;5042264;28;20989;-80
2021/11/09 00:34:50;;;;;;;7.70;6.63;;;7.30;99.90;;;;;;5040230;28;20494;-80
2021/11/09 00:37:19;;;;;;;7.43;4.73;;;7.50;99.90;;;;;;5046408;28;20951;-78
2021/11/09 00:39:47;;;;;;;9.57;6.30;;;7.10;99.90;;;;;;5045209;28;21151;-79
2021/11/09 00:42:16;;;;;;;7.63;5.80;;;7.20;99.90;;;;;;5041716;28;20444;-80
2021/11/09 00:44:44;;;;;;;6.97;4.73;;;7.20;99.90;;;;;;5044413;28;20451;-80
2021/11/09 00:47:14;;;;;;;7.63;5.90;;;7.30;99.90;;;;;;5038415;28;20465;-79
2021/11/09 00:49:42;;;;;;;15.03;6.40;;;7.10;99.90;;;;;;5043099;28;20826;-79
2021/11/09 00:52:11;;;;;;;7.20;5.60;;;7.00;99.90;;;;;;5045566;28;20477;-79
2021/11/09 00:54:40;;;;;;;8.37;5.73;;;7.00;99.90;;;;;;5042827;28;20446;-79
2021/11/09 00:57:08;;;;;;;7.70;5.50;;;7.00;99.90;;;;;;5038253;28;20452;-79
2021/11/09 00:59:36;;;;;;;5.90;5.23;;;7.00;99.90;;;;;;5044584;28;20489;-79
2021/11/09 01:02:06;;;;;;;8.80;5.27;;;7.00;99.90;;;;;;5045441;28;20452;-79
2021/11/09 01:04:36;;;;;;;6.83;4.90;;;7.00;99.90;;;;;;5046206;28;20443;-79
2021/11/09 01:07:05;;;;;;;8.00;5.07;;;6.90;99.90;;;;;;5045168;28;21113;-77
2021/11/09 01:09:33;;;;;;;7.30;4.57;;;6.90;99.90;;;;;;5044334;28;20463;-77
2021/11/09 01:12:03;;;;;;;6.10;4.30;;;6.80;99.90;;;;;;5043395;28;20461;-78
2021/11/09 01:14:32;;;;;;;6.50;4.43;;;6.80;99.90;;;;;;5041815;28;20451;-79
2021/11/09 01:17:00;;;;;;;13.03;7.20;;;6.90;99.90;;;;;;5037133;28;20463;-79
2021/11/09 01:19:32;;;;;;;39.57;12.60;;;7.00;99.90;;;;;;5043112;28;20883;-79
2021/11/09 01:22:03;;;;;;;12.80;6.87;;;6.90;99.90;;;;;;5039709;28;20463;-78
2021/11/09 01:24:32;;;;;;;10.77;5.37;;;6.80;99.90;;;;;;5041988;28;20846;-79
2021/11/09 01:27:00;;;;;;;10.57;5.80;;;6.90;99.90;;;;;;5044155;28;20482;-78
2021/11/09 01:29:28;;;;;;;15.13;5.83;;;6.90;99.90;;;;;;5045109;28;20479;-79
2021/11/09 01:31:59;;;;;;;9.40;5.60;;;6.80;99.90;;;;;;5037585;28;20558;-80
2021/11/09 01:34:27;;;;;;;15.90;5.57;;;6.70;99.90;;;;;;5040337;28;20464;-78
2021/11/09 01:36:56;;;;;;;11.53;6.80;;;6.90;99.90;;;;;;5040588;28;20459;-79
2021/11/09 01:39:26;;;;;;;12.23;5.33;;;7.00;99.90;;;;;;5043811;28;20479;-79
2021/11/09 01:41:54;;;;;;;10.93;4.40;;;6.70;99.90;;;;;;5043021;28;20456;-77
2021/11/09 01:44:23;;;;;;;7.40;4.73;;;6.70;99.90;;;;;;5039597;28;21200;-78
2021/11/09 01:46:51;;;;;;;8.07;4.53;;;6.60;99.90;;;;;;5044874;28;20522;-79
2021/11/09 01:49:19;;;;;;;11.00;5.57;;;6.60;99.90;;;;;;5042393;28;20476;-77
2021/11/09 01:51:48;;;;;;;8.97;5.33;;;6.70;99.90;;;;;;5034161;28;20481;-80
2021/11/09 01:54:16;;;;;;;6.53;4.50;;;6.70;99.90;;;;;;5046112;28;20458;-79
2021/11/09 01:56:46;;;;;;;6.73;4.17;;;6.80;99.90;;;;;;5042371;28;20795;-77
2021/11/09 01:59:14;;;;;;;7.57;4.10;;;6.70;99.90;;;;;;5041180;28;20491;-78
2021/11/09 02:01:43;;;;;;;12.43;4.83;;;6.80;99.90;;;;;;5047670;28;20478;-78
2021/11/09 02:04:11;;;;;;;10.17;4.97;;;6.80;99.90;;;;;;5042718;28;20455;-79
2021/11/09 02:06:40;;;;;;;5.27;3.57;;;6.80;99.90;;;;;;5045769;28;20897;-79
2021/11/09 02:09:12;;;;;;;7.03;4.80;;;6.80;99.90;;;;;;5044229;28;20483;-79
2021/11/09 02:11:41;;;;;;;10.83;5.13;;;6.80;99.90;;;;;;5039345;28;20440;-80
2021/11/09 02:14:12;;;;;;;5.90;3.90;;;6.80;99.90;;;;;;5043524;28;20458;-78
2021/11/09 02:16:40;;;;;;;5.60;4.13;;;6.90;99.90;;;;;;5049104;28;20472;-78
2021/11/09 02:19:08;;;;;;;6.70;4.77;;;6.80;99.90;;;;;;5047273;28;21048;-79
2021/11/09 02:21:38;;;;;;;8.97;3.90;;;6.90;99.90;;;;;;5038703;28;20974;-78
2021/11/09 02:24:07;;;;;;;8.93;4.50;;;6.90;99.90;;;;;;5040800;28;20512;-78
2021/11/09 02:26:36;;;;;;;4.70;3.50;;;7.00;99.90;;;;;;5047410;28;21073;-77
2021/11/09 02:29:04;;;;;;;5.87;4.20;;;6.90;99.90;;;;;;5047309;28;20553;-77
2021/11/09 02:31:33;;;;;;;6.33;4.13;;;6.90;99.90;;;;;;5043843;28;20521;-77
2021/11/09 02:34:01;;;;;;;4.70;2.97;;;6.80;99.90;;;;;;5043238;28;20475;-79
2021/11/09 02:36:29;;;;;;;4.15;3.75;;;6.70;99.90;;;;;;5045890;28;21087;-78
2021/11/09 02:38:59;;;;;;;4.37;3.40;;;6.70;99.90;;;;;;5039094;28;20202;-77
2021/11/09 02:41:27;;;;;;;4.27;3.00;;;6.80;99.90;;;;;;5044082;28;20466;-78
2021/11/09 02:43:58;;;;;;;4.50;3.57;;;6.80;99.90;;;;;;5046368;28;20452;-77
2021/11/09 02:49:17;;;;;;;4.90;3.30;;;6.70;99.90;;;;;;5048073;28;20479;-79
2021/11/09 02:51:48;;;;;;;3.93;2.87;;;6.70;99.90;;;;;;5038745;28;20455;-78
2021/11/09 02:54:21;;;;;;;5.80;4.23;;;6.70;99.90;;;;;;5042102;28;20463;-79
2021/11/09 02:56:53;;;;;;;8.33;2.97;;;6.50;99.90;;;;;;5040232;28;20547;-78
2021/11/09 02:59:35;;;;;;;6.00;3.03;;;6.60;99.90;;;;;;5037248;28;20475;-80
2021/11/09 03:02:10;;;;;;;4.47;2.93;;;6.70;99.90;;;;;;5042228;28;20456;-79
2021/11/09 03:04:51;;;;;;;6.43;3.40;;;6.70;99.90;;;;;;5044074;28;20458;-79
2021/11/09 03:07:28;;;;;;;10.60;3.10;;;6.80;99.90;;;;;;5045930;28;21024;-78
2021/11/09 03:10:01;;;;;;;7.57;3.00;;;6.70;99.90;;;;;;5034870;28;20539;-79
2021/11/09 03:12:34;;;;;;;5.00;3.45;;;6.80;99.90;;;;;;5036955;28;20464;-79
2021/11/09 03:15:04;;;;;;;5.93;3.40;;;6.80;99.90;;;;;;5041373;28;20201;-77
2021/11/09 03:17:39;;;;;;;3.80;3.50;;;6.60;99.90;;;;;;5044524;28;20470;-79
2021/11/09 03:20:12;;;;;;;3.07;2.70;;;6.50;99.90;;;;;;5044373;28;20482;-78
2021/11/09 03:44:55;;;;;;;8.37;4.30;;;6.50;99.90;;;;;;5035139;28;20448;-78
2021/11/09 03:47:23;;;;;;;6.03;3.90;;;6.60;99.90;;;;;;5040549;28;20452;-78
2021/11/09 03:49:53;;;;;;;6.77;3.77;;;6.60;99.90;;;;;;5037544;28;20468;-79
2021/11/09 03:52:26;;;;;;;4.32;3.53;;;6.60;99.90;;;;;;5039568;28;20467;-79
2021/11/09 03:55:00;;;;;;;6.40;3.83;;;6.60;99.90;;;;;;5046505;28;20255;-78
2021/11/09 03:57:32;;;;;;;9.10;3.60;;;6.60;99.90;;;;;;5040270;28;20888;-76
2021/11/09 04:00:12;;;;;;;7.73;3.63;;;6.60;99.90;;;;;;5044801;28;20718;-78
2021/11/09 04:02:48;;;;;;;6.30;3.50;;;6.50;99.90;;;;;;5037374;28;20451;-79
2021/11/09 04:05:18;;;;;;;8.10;3.30;;;6.40;99.90;;;;;;5046625;28;20463;-80
2021/11/09 04:07:54;;;;;;;3.20;3.00;;;6.40;99.90;;;;;;5044192;28;20455;-79
2021/11/09 04:10:32;;;;;;;5.37;4.63;;;6.50;99.90;;;;;;5047617;28;20887;-78
2021/11/09 04:13:11;;;;;;;4.47;3.70;;;6.50;99.90;;;;;;5047289;28;20462;-78
2021/11/09 04:15:53;;;;;;;11.43;3.63;;;6.40;99.90;;;;;;5040508;28;20861;-80
2021/11/09 04:18:31;;;;;;;4.50;2.90;;;6.40;99.90;;;;;;5047101;28;20455;-78
2021/11/09 04:21:07;;;;;;;7.43;3.13;;;6.40;99.90;;;;;;5055556;28;20533;-78
2021/11/09 04:29:24;;;;;;;3.27;2.57;;;6.40;99.90;;;;;;5026146;28;20542;-80
2021/11/09 05:02:54;;;;;;;6.22;2.58;;;6.20;99.90;;;;;;5040138;28;20520;-78
2021/11/09 05:08:27;;;;;;;7.20;3.33;;;6.10;99.90;;;;;;5037751;28;20871;-80
2021/11/09 05:10:57;;;;;;;5.27;3.30;;;6.20;99.90;;;;;;5044492;28;20639;-78
2021/11/09 05:13:26;;;;;;;6.57;3.73;;;6.10;99.90;;;;;;5033989;28;20455;-78
2021/11/09 05:15:55;;;;;;;5.40;3.50;;;6.10;99.90;;;;;;5036305;28;20456;-79
2021/11/09 05:18:25;;;;;;;8.10;4.30;;;6.10;99.90;;;;;;5040353;28;20806;-82
2021/11/09 05:20:54;;;;;;;15.43;7.60;;;6.20;99.90;;;;;;5045303;28;20220;-79
2021/11/09 05:23:22;;;;;;;11.77;4.45;;;6.20;99.90;;;;;;5039927;28;20513;-80
2021/11/09 05:25:51;;;;;;;14.97;6.43;;;6.10;99.90;;;;;;5043566;28;20259;-79
2021/11/09 05:28:19;;;;;;;10.80;4.50;;;6.20;99.90;;;;;;5043150;28;20444;-78
2021/11/09 05:30:49;;;;;;;7.73;5.03;;;6.00;99.90;;;;;;5043517;28;20511;-80
2021/11/09 05:33:19;;;;;;;9.07;4.40;;;6.00;99.90;;;;;;5048537;28;20473;-76
2021/11/09 05:35:51;;;;;;;8.68;4.70;;;6.10;99.90;;;;;;5045931;28;20447;-78
2021/11/09 05:38:26;;;;;;;4.50;4.03;;;5.80;99.90;;;;;;5045299;28;20738;-79
2021/11/09 05:40:57;;;;;;;6.32;4.82;;;5.90;99.90;;;;;;5043065;28;20217;-79
2021/11/09 05:43:27;;;;;;;6.60;4.07;;;5.90;99.90;;;;;;5040346;28;20197;-79
2021/11/09 05:45:55;;;;;;;5.00;3.17;;;6.00;99.90;;;;;;5044767;28;20460;-79
2021/11/09 05:48:23;;;;;;;6.78;3.33;;;6.00;99.90;;;;;;5036855;28;20521;-76
2021/11/09 05:50:53;;;;;;;5.43;3.33;;;6.00;99.90;;;;;;5041398;28;20309;-76
2021/11/09 05:53:21;;;;;;;10.13;3.58;;;6.00;99.90;;;;;;5040902;28;20472;-78
2021/11/09 05:55:50;;;;;;;5.20;3.75;;;6.00;99.90;;;;;;5043011;28;20211;-79
2021/11/09 05:58:18;;;;;;;8.30;4.20;;;6.00;99.90;;;;;;5043929;28;20209;-79
2021/11/09 06:00:46;;;;;;;4.93;3.70;;;6.00;99.90;;;;;;5039077;28;20486;-78
2021/11/09 06:03:15;;;;;;;4.13;3.38;;;5.90;99.90;;;;;;5034462;28;20459;-79
2021/11/09 06:05:43;;;;;;;5.03;3.88;;;6.00;99.90;;;;;;5034098;28;20197;-78
2021/11/09 06:08:12;;;;;;;8.10;4.33;;;6.00;99.90;;;;;;5041903;28;20205;-80
2021/11/09 06:10:41;;;;;;;5.77;5.00;;;6.00;99.90;;;;;;5038319;28;20479;-77
2021/11/09 06:13:09;;;;;;;5.93;5.30;;;6.00;99.90;;;;;;5037765;28;20457;-79
2021/11/09 06:15:37;;;;;;;10.02;4.50;;;6.00;99.90;;;;;;5038817;28;20205;-78
2021/11/09 06:18:07;;;;;;;4.65;4.03;;;6.00;99.90;;;;;;5038824;28;20301;-78
2021/11/09 06:20:36;;;;;;;7.80;3.67;;;5.90;99.90;;;;;;5037647;28;20210;-79
2021/11/09 06:23:04;;;;;;;4.00;3.40;;;5.90;99.90;;;;;;5044931;28;20222;-79
2021/11/09 06:25:34;;;;;;;6.03;4.73;;;5.90;99.90;;;;;;5042145;28;20499;-80
2021/11/09 06:28:04;;;;;;;9.20;4.23;;;5.90;99.90;;;;;;5045505;28;20959;-79
2021/11/09 06:30:33;;;;;;;4.13;3.57;;;5.90;99.90;;;;;;5046173;28;20474;-80
2021/11/09 06:33:01;;;;;;;6.30;3.17;;;5.90;99.90;;;;;;5046228;28;20451;-78
2021/11/09 06:35:29;;;;;;;4.30;3.10;;;5.90;99.90;;;;;;5040980;28;21015;-78
2021/11/09 06:37:58;;;;;;;6.82;4.78;;;5.90;99.90;;;;;;5039063;28;20934;-79
2021/11/09 06:40:26;;;;;;;6.37;4.07;;;5.80;99.90;;;;;;5046702;28;20209;-79
2021/11/09 06:42:55;;;;;;;6.00;3.40;;;5.90;99.90;;;;;;5047355;28;20479;-79
2021/11/09 06:45:24;;;;;;;8.20;4.10;;;5.80;99.90;;;;;;5038441;28;20534;-79
2021/11/09 06:47:52;;;;;;;7.27;5.33;;;5.90;99.90;;;;;;5046786;28;20455;-80
2021/11/09 06:50:21;;;;;;;9.67;4.10;;;5.90;99.90;;;;;;5047098;28;20475;-77
2021/11/09 06:52:49;;;;;;;5.77;3.80;;;5.90;99.90;;;;;;5050542;28;20509;-78
2021/11/09 06:55:18;;;;;;;5.10;3.00;;;5.90;99.90;;;;;;5049521;28;20465;-79
2021/11/09 06:57:47;;;;;;;7.60;4.27;;;6.00;99.90;;;;;;5048282;28;20463;-79
2021/11/09 07:00:18;;;;;;;8.15;3.67;;;6.00;99.90;;;;;;5046318;28;20847;-80
2021/11/09 07:02:47;;;;;;;5.53;3.70;;;6.00;99.90;;;;;;5040221;28;21023;-77
2021/11/09 07:05:17;;;;;;;6.70;3.55;;;6.00;99.90;;;;;;5047583;28;20892;-79
2021/11/09 07:07:45;;;;;;;6.90;4.35;;;6.00;99.90;;;;;;5044628;28;20189;-80
2021/11/09 07:10:14;;;;;;;6.20;3.90;;;6.00;99.90;;;;;;5039937;28;20221;-80
2021/11/09 07:12:43;;;;;;;4.43;3.55;;;6.00;99.90;;;;;;5041831;28;20939;-80
2021/11/09 07:15:13;;;;;;;6.45;4.35;;;6.00;99.90;;;;;;5047120;28;20694;-79
2021/11/09 07:17:43;;;;;;;5.10;3.50;;;5.90;99.90;;;;;;5043522;28;20206;-80
2021/11/09 07:20:13;;;;;;;4.23;2.63;;;5.90;99.90;;;;;;5044772;28;20475;-80
2021/11/09 07:22:42;;;;;;;3.03;2.65;;;5.90;99.90;;;;;;5050608;28;20471;-79
2021/11/09 07:25:11;;;;;;;8.30;3.83;;;5.90;99.90;;;;;;5043724;28;20213;-79
2021/11/09 07:27:40;;;;;;;10.57;4.40;;;6.00;99.90;;;;;;5047513;28;20212;-79
2021/11/09 07:30:12;;;;;;;5.80;3.47;;;6.00;99.90;;;;;;5045556;28;20472;-79
2021/11/09 07:32:40;;;;;;;6.13;3.67;;;6.10;99.90;;;;;;5042028;28;20445;-79
2021/11/09 07:35:11;;;;;;;5.40;3.53;;;6.10;99.90;;;;;;5043843;28;20459;-79
2021/11/09 07:37:40;;;;;;;11.83;3.60;;;6.10;99.90;;;;;;5039631;28;20201;-79
2021/11/09 07:40:11;;;;;;;6.70;3.60;;;6.30;99.90;;;;;;5046569;28;20486;-79
2021/11/09 07:42:47;;;;;;;6.27;3.87;;;6.30;99.90;;;;;;5042078;28;20492;-79
2021/11/09 07:45:18;;;;;;;5.20;3.40;;;6.40;99.90;;;;;;5044266;28;20512;-78
2021/11/09 07:47:47;;;;;;;7.20;3.80;;;6.80;99.90;;;;;;5043147;28;20447;-79
2021/11/09 07:50:17;;;;;;;8.30;3.57;;;6.60;99.90;;;;;;5046587;28;20468;-79
2021/11/09 07:52:47;;;;;;;4.20;3.00;;;6.60;99.90;;;;;;5043268;28;20448;-81
2021/11/09 07:55:18;;;;;;;3.30;2.83;;;6.70;99.90;;;;;;5038896;28;20456;-79
2021/11/09 07:57:50;;;;;;;6.77;3.27;;;6.70;99.90;;;;;;5036474;28;20467;-80
2021/11/09 08:00:26;;;;;;;4.90;3.57;;;6.80;99.90;;;;;;5044551;28;20475;-79
2021/11/09 08:03:06;;;;;;;8.70;4.40;;;6.80;99.90;;;;;;5048243;28;20495;-79
2021/11/09 08:05:41;;;;;;;6.23;3.53;;;6.80;99.90;;;;;;5041990;28;20451;-79
2021/11/09 08:08:13;;;;;;;3.87;3.57;;;6.80;99.90;;;;;;5047463;28;20462;-79
2021/11/09 08:10:41;;;;;;;4.37;3.27;;;7.00;99.90;;;;;;5034734;28;20491;-80
2021/11/09 08:13:10;;;;;;;3.23;2.93;;;7.00;99.90;;;;;;5041259;28;20939;-81
2021/11/09 08:15:39;;;;;;;5.40;3.67;;;7.20;99.90;;;;;;5041602;28;20451;-79
2021/11/09 08:18:08;;;;;;;5.00;3.37;;;7.40;99.90;;;;;;5042695;28;20511;-79
2021/11/09 08:20:57;;;;;;;3.63;3.00;;;7.50;99.90;;;;;;5036566;28;20914;-78
2021/11/09 08:23:26;;;;;;;4.30;2.93;;;7.60;99.90;;;;;;5044186;28;20477;-79
2021/11/09 08:25:54;;;;;;;2.63;2.20;;;7.80;99.90;;;;;;5046377;28;20488;-80
2021/11/09 08:28:23;;;;;;;2.67;1.97;;;7.80;99.90;;;;;;5046447;28;21709;-79
2021/11/09 08:30:53;;;;;;;6.20;3.17;;;7.90;99.90;;;;;;5045326;28;20439;-79
2021/11/09 08:33:25;;;;;;;5.07;2.80;;;8.10;99.90;;;;;;5042284;28;20191;-80
2021/11/09 08:35:54;;;;;;;2.65;2.05;;;8.30;99.90;;;;;;5037498;28;20451;-80
2021/11/09 08:38:24;;;;;;;7.00;2.67;;;8.40;99.90;;;;;;5044278;28;20597;-80
2021/11/09 08:40:54;;;;;;;6.50;2.50;;;8.60;99.90;;;;;;5047501;28;20883;-80
2021/11/09 08:43:26;;;;;;;5.40;3.37;;;8.60;99.90;;;;;;5038612;28;20484;-80
2021/11/09 08:45:58;;;;;;;3.90;1.70;;;8.60;99.90;;;;;;5040550;28;20822;-80
2021/11/09 08:48:28;;;;;;;6.97;2.57;;;8.80;99.90;;;;;;5039700;28;20472;-80
2021/11/09 08:50:57;;;;;;;3.40;1.83;;;8.80;99.90;;;;;;5045999;28;21358;-79
2021/11/09 08:53:30;;;;;;;4.43;2.03;;;8.90;99.90;;;;;;5038684;28;20464;-80
2021/11/09 09:04:21;;;;;;;2.93;1.90;;;9.40;99.90;;;;;;5036763;28;21043;-79
2021/11/09 09:06:51;;;;;;;6.23;2.00;;;9.50;99.90;;;;;;5044894;28;20898;-80
2021/11/09 09:09:21;;;;;;;1.80;1.47;;;9.50;99.90;;;;;;5049274;28;20478;-80
2021/11/09 09:11:52;;;;;;;2.13;1.80;;;9.60;99.90;;;;;;5051967;28;20461;-81
2021/11/09 09:14:21;;;;;;;4.18;2.05;;;9.70;99.90;;;;;;5046972;28;20462;-80
2021/11/09 09:16:50;;;;;;;2.60;1.50;;;9.90;99.90;;;;;;5050546;28;20202;-81
2021/11/09 09:19:24;;;;;;;3.63;1.63;;;10.00;99.90;;;;;;5040724;28;20537;-79
2021/11/09 09:21:57;;;;;;;2.37;1.50;;;10.10;99.90;;;;;;5048460;28;20483;-80
2021/11/09 09:24:31;;;;;;;4.70;1.90;;;10.20;99.90;;;;;;5047818;28;20839;-79
2021/11/09 09:27:09;;;;;;;2.00;1.33;;;10.30;99.90;;;;;;5041711;28;20460;-81
2021/11/09 09:29:56;;;;;;;4.23;1.80;;;10.50;99.90;;;;;;5043775;28;20562;-81
2021/11/09 09:57:41;;;;;;;4.40;1.73;;;11.60;99.90;;;;;;5045008;28;20502;-79
2021/11/09 10:00:11;;;;;;;2.33;2.13;;;11.70;99.90;;;;;;5036095;28;20471;-80
2021/11/09 10:02:48;;;;;;;3.08;2.05;;;11.90;99.90;;;;;;5050938;28;20447;-80
2021/11/09 10:05:18;;;;;;;2.77;1.73;;;11.80;99.90;;;;;;5049389;28;20209;-79
2021/11/09 10:07:50;;;;;;;2.60;1.77;;;11.80;99.90;;;;;;5047995;28;20513;-81
2021/11/09 10:10:20;;;;;;;2.17;1.83;;;11.90;99.90;;;;;;5045139;28;20467;-79
2021/11/09 10:12:59;;;;;;;6.87;1.93;;;12.00;99.90;;;;;;5041345;28;20928;-79
2021/11/09 10:15:30;;;;;;;4.07;2.10;;;12.10;99.90;;;;;;5043849;28;20451;-80
2021/11/09 10:18:02;;;;;;;2.40;1.40;;;12.20;99.90;;;;;;5039913;28;20509;-80
2021/11/09 10:20:33;;;;;;;6.10;2.03;;;12.30;99.90;;;;;;5050691;28;20471;-79
2021/11/09 10:23:04;;;;;;;5.93;2.20;;;12.30;99.90;;;;;;5040670;28;20463;-80
2021/11/09 10:25:35;;;;;;;7.43;1.93;;;12.40;99.90;;;;;;5045469;28;20818;-80
2021/11/09 10:28:13;;;;;;;6.67;2.10;;;12.40;99.90;;;;;;5036497;28;20452;-81
2021/11/09 10:30:44;;;;;;;3.43;1.80;;;12.40;99.90;;;;;;5038869;28;20977;-81
2021/11/09 10:33:15;;;;;;;5.40;1.70;;;12.40;99.90;;;;;;5045439;28;20459;-80
2021/11/09 10:35:44;;;;;;;4.10;1.70;;;12.70;99.90;;;;;;5044913;28;20460;-80
2021/11/09 10:38:13;;;;;;;2.53;2.17;;;12.80;99.90;;;;;;5047958;28;20517;-80
2021/11/09 10:40:46;;;;;;;3.50;2.10;;;12.90;99.90;;;;;;5042994;28;20447;-80
2021/11/09 10:43:18;;;;;;;2.63;1.70;;;12.90;99.90;;;;;;5046099;28;20214;-79
2021/11/09 10:45:47;;;;;;;3.10;1.37;;;13.00;99.90;;;;;;5036963;28;20483;-80
2021/11/09 10:48:17;;;;;;;2.80;1.63;;;13.10;99.90;;;;;;5041641;28;20502;-80
2021/11/09 10:50:48;;;;;;;7.13;2.43;;;13.30;99.90;;;;;;5045927;28;20477;-80
2021/11/09 10:53:19;;;;;;;5.20;3.27;;;13.40;99.90;;;;;;5048500;28;20516;-80
2021/11/09 10:55:59;;;;;;;3.53;1.63;;;13.40;99.90;;;;;;5047387;28;20451;-79
2021/11/09 11:04:03;;;;;;;4.30;2.20;;;13.10;99.90;;;;;;5039505;28;20474;-80
2021/11/09 11:06:33;;;;;;;5.30;2.90;;;13.00;99.90;;;;;;5050138;28;20479;-80
2021/11/09 11:09:17;;;;;;;3.23;1.77;;;13.20;99.90;;;;;;5043343;28;20563;-79
2021/11/09 11:12:06;;;;;;;3.63;2.03;;;13.00;99.90;;;;;;5042940;28;20563;-80
2021/11/09 11:14:39;;;;;;;2.40;1.93;;;13.00;99.90;;;;;;5048268;28;20966;-80
2021/11/09 11:17:10;;;;;;;2.63;1.83;;;13.00;99.90;;;;;;5038683;28;21549;-79
2021/11/09 11:19:40;;;;;;;4.10;1.83;;;13.00;99.90;;;;;;5045507;28;20441;-80
2021/11/09 11:22:10;;;;;;;2.40;1.30;;;13.00;99.90;;;;;;5044346;28;20668;-81
2021/11/09 11:24:40;;;;;;;3.77;1.70;;;13.00;99.90;;;;;;5046870;28;20484;-80
2021/11/09 11:27:10;;;;;;;5.93;1.83;;;12.80;99.90;;;;;;5044169;28;20453;-81
2021/11/09 11:29:41;;;;;;;2.80;1.60;;;12.70;99.90;;;;;;5038897;28;20493;-81
2021/11/09 11:32:12;;;;;;;3.30;1.70;;;12.90;99.90;;;;;;5047051;28;20513;-81
2021/11/09 11:34:40;;;;;;;1.97;1.67;;;12.80;99.90;;;;;;5041977;28;20455;-81
2021/11/09 11:37:11;;;;;;;4.40;1.50;;;12.90;99.90;;;;;;5048914;28;20467;-81
2021/11/09 11:39:41;;;;;;;5.80;2.10;;;13.00;99.90;;;;;;5048324;28;20467;-80
2021/11/09 11:42:12;;;;;;;3.87;1.40;;;13.00;99.90;;;;;;5038571;28;20457;-81
2021/11/09 11:44:44;;;;;;;1.50;1.30;;;13.20;99.90;;;;;;5036384;28;20491;-81
2021/11/09 11:47:18;;;;;;;2.30;1.37;;;13.30;99.90;;;;;;5047644;28;20459;-80
2021/11/09 11:49:49;;;;;;;1.60;1.50;;;13.30;99.90;;;;;;5047840;28;20479;-81
2021/11/09 11:52:26;;;;;;;4.43;1.70;;;13.40;99.90;;;;;;5043136;28;21007;-81
2021/11/09 11:55:04;;;;;;;2.43;1.77;;;13.50;99.90;;;;;;5041742;28;20460;-81
2021/11/09 11:57:43;;;;;;;3.25;1.90;;;13.50;99.90;;;;;;5038016;28;20534;-80
2021/11/09 12:00:44;;;;;;;2.50;2.30;;;13.50;99.90;;;;;;5046280;28;21060;-79
2021/11/09 12:03:36;;;;;;;3.07;1.83;;;13.40;99.80;;;;;;5045185;28;20542;-79
2021/11/09 12:06:28;;;;;;;6.80;1.67;;;13.50;99.60;;;;;;5046577;28;20447;-79
2021/11/09 12:08:58;;;;;;;1.60;1.50;;;13.40;98.50;;;;;;5037568;28;20483;-79
2021/11/09 12:11:36;;;;;;;2.43;1.47;;;13.30;97.70;;;;;;5042821;28;20453;-79
2021/11/09 12:14:16;;;;;;;3.37;1.70;;;13.20;97.50;;;;;;5043770;28;20455;-79
2021/11/09 12:16:57;;;;;;;3.37;1.67;;;13.20;97.50;;;;;;5038023;28;20500;-79
2021/11/09 12:19:56;;;;;;;1.95;1.50;;;13.20;97.50;;;;;;5047618;28;20439;-79
2021/11/09 12:22:36;;;;;;;3.40;1.50;;;13.10;97.60;;;;;;5042056;28;20731;-80
2021/11/09 12:25:07;;;;;;;3.03;1.40;;;13.00;94.80;;;;;;5043470;28;20486;-81
2021/11/09 12:28:01;;;;;;;1.50;1.10;;;13.00;95.60;;;;;;5035758;28;21002;-80
2021/11/09 12:30:50;;;;;;;3.30;1.50;;;13.10;97.20;;;;;;5043059;28;20816;-82
2021/11/09 12:33:21;;;;;;;2.60;1.60;;;13.20;97.70;;;;;;5043784;28;20451;-80
2021/11/09 12:36:24;;;;;;;2.93;1.30;;;13.20;97.70;;;;;;5051600;28;20187;-80
2021/11/09 12:38:54;;;;;;;6.97;1.83;;;13.20;96.80;;;;;;5042054;28;20453;-80
2021/11/09 12:41:24;;;;;;;2.20;1.50;;;13.20;95.50;;;;;;5046629;28;20467;-79
2021/11/09 12:43:54;;;;;;;2.60;1.30;;;13.10;94.70;;;;;;5048519;28;20451;-80
2021/11/09 12:46:29;;;;;;;3.10;1.70;;;13.10;95.10;;;;;;5044596;28;20472;-80
2021/11/09 12:49:01;;;;;;;1.53;1.43;;;12.90;92.10;;;;;;5042099;28;20471;-78
2021/11/09 12:51:32;;;;;;;2.27;1.30;;;13.00;95.70;;;;;;5041699;28;20453;-78
2021/11/09 12:54:03;;;;;;;2.13;1.23;;;13.10;94.20;;;;;;5043234;28;20825;-78
2021/11/09 12:56:34;;;;;;;4.70;1.73;;;13.20;97.70;;;;;;5035762;28;20978;-79
2021/11/09 12:59:07;;;;;;;2.90;1.70;;;13.40;97.60;;;;;;5036560;28;20432;-79
2021/11/09 13:04:24;;;;;;;1.73;1.57;;;13.60;96.20;;;;;;5028307;28;20919;-79
2021/11/09 13:07:03;;;;;;;1.87;1.20;;;13.60;95.50;;;;;;5047874;28;20801;-79
2021/11/09 13:09:35;;;;;;;7.00;1.40;;;13.70;96.50;;;;;;5046286;28;20490;-79
2021/11/09 13:12:08;;;;;;;3.60;1.60;;;13.70;95.10;;;;;;5046707;28;20447;-79
2021/11/09 13:14:42;;;;;;;2.03;0.97;;;13.60;93.50;;;;;;5044116;28;20446;-79
2021/11/09 13:17:33;;;;;;;2.90;1.33;;;13.70;95.40;;;;;;5041974;28;20447;-80
2021/11/09 13:20:14;;;;;;;1.70;1.57;;;13.80;95.50;;;;;;5043412;28;20477;-80
2021/11/09 13:22:50;;;;;;;1.47;1.20;;;13.70;92.80;;;;;;5048037;28;20460;-79
2021/11/09 13:25:29;;;;;;;2.20;1.10;;;13.70;93.50;;;;;;5040929;28;20496;-77
2021/11/09 13:27:58;;;;;;;1.50;1.07;;;13.80;99.90;;;;;;5042927;28;20634;-78
2021/11/09 13:30:47;;;;;;;1.20;1.10;;;13.90;95.50;;;;;;5043787;28;20460;-79
2021/11/09 13:33:16;;;;;;;3.70;1.30;;;13.80;91.30;;;;;;5041770;28;20508;-79
2021/11/09 13:35:47;;;;;;;1.17;1.07;;;13.60;89.20;;;;;;5042500;28;20956;-79
2021/11/09 13:38:17;;;;;;;1.73;1.33;;;13.50;90.10;;;;;;5045957;28;20452;-79
2021/11/09 13:40:48;;;;;;;2.50;1.40;;;13.40;86.70;;;;;;5041553;28;20907;-79
2021/11/09 13:43:19;;;;;;;3.07;1.30;;;13.50;90.00;;;;;;5040859;28;20849;-80
2021/11/09 13:45:55;;;;;;;4.30;1.10;;;13.50;90.10;;;;;;5042553;28;20522;-79
2021/11/09 13:48:23;;;;;;;15.33;1.90;;;13.50;90.10;;;;;;5046294;28;20452;-79
2021/11/09 13:50:56;;;;;;;2.60;1.30;;;13.60;91.20;;;;;;5042365;28;21016;-79
2021/11/09 13:53:27;;;;;;;1.03;0.93;;;13.60;90.70;;;;;;5049051;28;20451;-80
2021/11/09 13:55:55;;;;;;;4.07;1.33;;;13.70;91.60;;;;;;5051116;28;20451;-79
2021/11/09 13:58:24;;;;;;;1.73;1.33;;;13.80;91.80;;;;;;5050696;28;20827;-79
2021/11/09 14:00:55;;;;;;;3.07;2.00;;;13.70;89.50;;;;;;5040365;28;20463;-78
2021/11/09 14:03:36;;;;;;;3.47;1.53;;;13.70;90.00;;;;;;5050293;28;20449;-79
2021/11/09 14:06:40;;;;;;;2.70;1.50;;;13.70;87.30;;;;;;5045149;28;20535;-80
2021/11/09 14:12:28;;;;;;;2.97;1.63;;;13.70;86.40;;;;;;5072965;28;20625;-81
2021/11/09 14:15:09;;;;;;;1.40;1.10;;;13.80;88.80;;;;;;5066273;28;20494;-78
2021/11/09 14:17:38;;;;;;;3.90;1.23;;;13.90;88.60;;;;;;5071570;28;20461;-80
2021/11/09 14:20:12;;;;;;;2.63;1.43;;;13.80;86.60;;;;;;5065444;28;20526;-79
2021/11/09 14:22:42;;;;;;;3.53;1.20;;;13.80;85.10;;;;;;5069141;28;20453;-80
2021/11/09 14:25:11;;;;;;;1.47;1.37;;;13.80;84.60;;;;;;5067231;28;20484;-80
2021/11/09 14:27:45;;;;;;;2.20;1.23;;;13.80;84.90;;;;;;5060271;28;20452;-79
2021/11/09 14:30:20;;;;;;;4.53;1.20;;;13.80;87.70;;;;;;5058749;28;20467;-80
2021/11/09 14:32:48;;;;;;;1.83;1.10;;;13.80;81.80;;;;;;5056613;28;21290;-79
2021/11/09 14:35:21;;;;;;;3.73;1.30;;;13.70;81.30;;;;;;5062807;28;20509;-79
2021/11/09 14:37:55;;;;;;;2.70;1.10;;;13.60;74.70;;;;;;5054817;28;20480;-80
2021/11/09 14:40:31;;;;;;;1.63;1.20;;;13.60;79.00;;;;;;5066437;28;20518;-80
2021/11/09 14:43:13;;;;;;;2.70;1.10;;;13.60;78.90;;;;;;5066226;28;20450;-79
2021/11/09 14:45:48;;;;;;;1.30;1.20;;;13.60;77.50;;;;;;5064912;28;20879;-80
2021/11/09 14:48:20;;;;;;;3.10;1.20;;;13.50;72.90;;;;;;5059619;28;20451;-80
2021/11/09 14:50:58;;;;;;;2.10;1.17;;;13.40;72.10;;;;;;5062277;28;20489;-79
2021/11/09 14:53:30;;;;;;;2.93;1.53;;;13.40;74.20;;;;;;5059024;28;21074;-80
2021/11/09 14:56:05;;;;;;;1.52;1.05;;;13.50;72.00;;;;;;5063111;28;20506;-80
2021/11/09 14:58:40;;;;;;;2.03;1.73;;;13.40;71.10;;;;;;5060288;28;20557;-77
2021/11/09 15:01:25;;;;;;;4.27;1.43;;;13.40;70.90;;;;;;5056177;28;20480;-80
2021/11/09 15:04:09;;;;;;;2.57;1.20;;;13.40;71.70;;;;;;5067921;28;20451;-80
2021/11/09 15:06:53;;;;;;;2.20;1.17;;;13.40;72.40;;;;;;5050640;28;20458;-80
2021/11/09 15:09:43;;;;;;;3.73;1.50;;;13.30;70.10;;;;;;5060310;28;20491;-81